Wetterdaten: Woche 24.02.20 - 01.03.20 (KW9)
Datum Zeit Temp. Aussen Temp. o. S. Temp +5cm Feuchte Auss Luftdruck Regen Sonnenschein Regendauer Solar Windben Empfang
24.02.2020 00:00 4,5 C 3,4 C 2,9 C 88 % 1024,0 hPa 0,0 l/m 0,00 h 0,00 h 0 W/m 5,4 km/h (1 Bft) 99,48 %
24.02.2020 01:00 3,9 C 2,9 C 2,0 C 87 % 1024,3 hPa 0,0 l/m 0,00 h 0,00 h 0 W/m 1,8 km/h (1 Bft) 92,10 %
24.02.2020 02:00 3,4 C 2,7 C 2,0 C 88 % 1024,5 hPa 0,0 l/m 0,00 h 0,00 h 0 W/m 3,9 km/h (1 Bft) 97,86 %
24.02.2020 03:00 3,4 C 3,1 C 2,6 C 89 % 1024,4 hPa 0,0 l/m 0,00 h 0,00 h 0 W/m 4,9 km/h (1 Bft) 97,94 %
24.02.2020 04:00 3,8 C 3,3 C 2,8 C 88 % 1024,4 hPa 0,0 l/m 0,00 h 0,00 h 0 W/m 4,3 km/h (1 Bft) 96,48 %
24.02.2020 05:00 3,9 C 3,4 C 2,9 C 88 % 1023,7 hPa 0,0 l/m 0,00 h 0,00 h 0 W/m 3,2 km/h (1 Bft) 98,00 %
24.02.2020 06:00 4,1 C 3,9 C 3,0 C 88 % 1023,1 hPa 0,0 l/m 0,00 h 0,00 h 0 W/m 6,1 km/h (2 Bft) 97,79 %
24.02.2020 07:00 4,3 C 3,9 C 3,3 C 88 % 1022,4 hPa 0,0 l/m 0,00 h 0,00 h 7 W/m 9,2 km/h (2 Bft) 97,44 %
24.02.2020 08:00 4,5 C 4,2 C 3,6 C 89 % 1021,4 hPa 0,0 l/m 0,00 h 0,00 h 28 W/m 13,6 km/h (3 Bft) 97,22 %
24.02.2020 09:00 5,1 C 4,5 C 4,0 C 89 % 1020,0 hPa 0,2 l/m 0,00 h 0,40 h 51 W/m 17,5 km/h (3 Bft) 97,01 %
24.02.2020 10:00 5,2 C 3,9 C 3,3 C 92 % 1018,6 hPa 1,0 l/m 0,00 h 0,73 h 67 W/m 20,5 km/h (4 Bft) 98,29 %
24.02.2020 11:00 5,3 C 4,3 C 4,0 C 96 % 1016,2 hPa 0,4 l/m 0,00 h 0,27 h 55 W/m 28,2 km/h (4 Bft) 95,52 %
24.02.2020 12:00 5,7 C 5,1 C 4,6 C 98 % 1014,1 hPa 0,0 l/m 0,00 h 0,03 h 52 W/m 30,0 km/h (5 Bft) 97,40 %
24.02.2020 13:00 6,4 C 5,9 C 5,4 C 98 % 1012,1 hPa 0,0 l/m 0,00 h 0,00 h 62 W/m 26,1 km/h (4 Bft) 98,65 %
24.02.2020 14:00 7,4 C 7,1 C 6,5 C 99 % 1010,0 hPa 0,0 l/m 0,00 h 0,00 h 44 W/m 17,2 km/h (3 Bft) 93,00 %
24.02.2020 15:00 10,2 C 9,5 C 8,8 C 99 % 1008,5 hPa 0,4 l/m 0,00 h 0,60 h 33 W/m 26,4 km/h (4 Bft) 99,79 %
24.02.2020 16:00 10,8 C 9,7 C 8,9 C 97 % 1007,1 hPa 0,2 l/m 0,00 h 0,83 h 27 W/m 33,9 km/h (5 Bft) 97,51 %
24.02.2020 17:00 11,3 C 10,0 C 8,9 C 91 % 1006,3 hPa 0,0 l/m 0,00 h 0,50 h 6 W/m 33,0 km/h (5 Bft) 95,73 %
24.02.2020 18:00 10,7 C 8,9 C 8,3 C 93 % 1006,1 hPa 0,6 l/m 0,00 h 1,00 h 0 W/m 22,5 km/h (4 Bft) 97,70 %
24.02.2020 19:00 10,3 C 8,9 C 8,3 C 96 % 1006,0 hPa 0,2 l/m 0,00 h 0,85 h 0 W/m 26,2 km/h (4 Bft) 97,79 %
24.02.2020 20:00 10,4 C 9,1 C 8,5 C 96 % 1005,9 hPa 0,0 l/m 0,00 h 0,00 h 0 W/m 28,2 km/h (4 Bft) 94,49 %
24.02.2020 21:00 10,3 C 9,2 C 8,6 C 95 % 1005,5 hPa 0,0 l/m 0,00 h 0,00 h 0 W/m 28,9 km/h (5 Bft) 98,29 %
24.02.2020 22:00 10,3 C 9,4 C 8,7 C 95 % 1004,8 hPa 0,0 l/m 0,00 h 0,37 h 0 W/m 26,3 km/h (4 Bft) 97,20 %
24.02.2020 23:00 10,3 C 9,2 C 8,6 C 96 % 1004,6 hPa 0,0 l/m 0,00 h 0,83 h 0 W/m 28,5 km/h (4 Bft) 96,01 %
25.02.2020 00:00 10,3 C 9,1 C 8,4 C 96 % 1004,1 hPa 0,2 l/m 0,00 h 0,43 h 0 W/m 25,6 km/h (4 Bft) 97,91 %
25.02.2020 01:00 10,0 C 8,7 C 8,2 C 96 % 1003,8 hPa 0,0 l/m 0,00 h 0,30 h 0 W/m 19,7 km/h (3 Bft) 99,43 %
25.02.2020 02:00 9,6 C 8,6 C 7,9 C 94 % 1003,4 hPa 0,0 l/m 0,00 h 0,10 h 0 W/m 22,0 km/h (4 Bft) 94,10 %
25.02.2020 03:00 9,4 C 8,5 C 7,9 C 92 % 1002,9 hPa 0,0 l/m 0,00 h 0,07 h 0 W/m 19,9 km/h (4 Bft) 97,86 %
25.02.2020 04:00 8,8 C 7,9 C 7,3 C 90 % 1002,5 hPa 0,0 l/m 0,00 h 0,00 h 0 W/m 16,3 km/h (3 Bft) 98,86 %
25.02.2020 05:00 8,3 C 7,4 C 6,9 C 91 % 1002,5 hPa 0,0 l/m 0,00 h 0,00 h 0 W/m 17,9 km/h (3 Bft) 96,37 %
25.02.2020 06:00 7,8 C 7,1 C 6,6 C 91 % 1002,2 hPa 0,0 l/m 0,00 h 0,07 h 0 W/m 14,1 km/h (3 Bft) 98,23 %
25.02.2020 07:00 7,7 C 6,6 C 5,7 C 92 % 1002,0 hPa 0,0 l/m 0,00 h 0,43 h 9 W/m 10,8 km/h (2 Bft) 96,73 %
25.02.2020 08:00 7,4 C 7,1 C 6,3 C 90 % 1001,9 hPa 0,0 l/m 0,00 h 0,10 h 35 W/m 17,1 km/h (3 Bft) 98,19 %
25.02.2020 09:00 7,6 C 9,3 C 6,8 C 83 % 1001,8 hPa 0,0 l/m 0,60 h 0,00 h 193 W/m 24,1 km/h (4 Bft) 97,51 %
25.02.2020 10:00 8,6 C 10,9 C 7,8 C 79 % 1001,6 hPa 0,0 l/m 0,80 h 0,00 h 378 W/m 25,1 km/h (4 Bft) 97,37 %
25.02.2020 11:00 9,5 C 12,9 C 9,0 C 73 % 1001,4 hPa 0,0 l/m 0,77 h 0,00 h 483 W/m 25,7 km/h (4 Bft) 96,49 %
25.02.2020 12:00 9,7 C 12,8 C 10,1 C 72 % 1001,1 hPa 0,0 l/m 0,80 h 0,00 h 438 W/m 20,5 km/h (4 Bft) 95,10 %
25.02.2020 13:00 10,6 C 13,6 C 11,5 C 67 % 1000,4 hPa 0,0 l/m 0,80 h 0,00 h 475 W/m 24,3 km/h (4 Bft) 99,01 %
25.02.2020 14:00 10,1 C 11,8 C 9,5 C 65 % 999,7 hPa 0,0 l/m 0,50 h 0,00 h 329 W/m 23,5 km/h (4 Bft) 96,50 %
25.02.2020 15:00 10,1 C 10,4 C 9,2 C 65 % 998,8 hPa 0,0 l/m 0,20 h 0,00 h 161 W/m 18,3 km/h (3 Bft) 98,10 %
25.02.2020 16:00 9,3 C 8,4 C 8,1 C 69 % 998,3 hPa 0,2 l/m 0,00 h 0,07 h 59 W/m 16,1 km/h (3 Bft) 97,51 %
25.02.2020 17:00 5,7 C 3,3 C 3,2 C 87 % 998,5 hPa 2,6 l/m 0,00 h 1,00 h 4 W/m 19,9 km/h (4 Bft) 95,30 %
25.02.2020 18:00 5,1 C 3,5 C 3,2 C 93 % 997,9 hPa 1,0 l/m 0,00 h 0,90 h 0 W/m 14,8 km/h (3 Bft) 97,38 %
25.02.2020 19:00 4,4 C 3,0 C 2,8 C 94 % 997,7 hPa 0,2 l/m 0,00 h 0,83 h 0 W/m 14,6 km/h (3 Bft) 98,86 %
25.02.2020 20:00 3,7 C 2,5 C 2,3 C 95 % 997,3 hPa 0,4 l/m 0,00 h 0,87 h 0 W/m 7,4 km/h (2 Bft) 95,90 %
25.02.2020 21:00 3,5 C 2,2 C 2,2 C 96 % 996,3 hPa 0,6 l/m 0,00 h 0,70 h 0 W/m 8,5 km/h (2 Bft) 94,31 %
25.02.2020 22:00 3,5 C 2,7 C 2,2 C 97 % 995,5 hPa 0,6 l/m 0,00 h 0,70 h 0 W/m 5,1 km/h (1 Bft) 97,36 %
25.02.2020 23:00 3,5 C 2,8 C 2,2 C 97 % 994,3 hPa 0,0 l/m 0,00 h 0,00 h 0 W/m 7,2 km/h (2 Bft) 97,08 %
26.02.2020 00:00 3,7 C 2,8 C 2,3 C 97 % 993,9 hPa 0,0 l/m 0,00 h 0,23 h 0 W/m 16,7 km/h (3 Bft) 98,62 %
26.02.2020 01:00 3,6 C 2,6 C 2,1 C 97 % 993,5 hPa 0,0 l/m 0,00 h 0,00 h 0 W/m 12,7 km/h (3 Bft) 97,57 %
26.02.2020 02:00 3,6 C 2,6 C 2,1 C 94 % 993,1 hPa 0,2 l/m 0,00 h 0,27 h 0 W/m 20,2 km/h (4 Bft) 95,30 %
26.02.2020 03:00 3,7 C 2,5 C 1,9 C 91 % 992,6 hPa 0,6 l/m 0,00 h 0,77 h 0 W/m 24,8 km/h (4 Bft) 97,84 %
26.02.2020 04:00 2,1 C 0,5 C 0,3 C 94 % 992,7 hPa 2,6 l/m 0,00 h 1,00 h 0 W/m 24,8 km/h (4 Bft) 98,65 %
26.02.2020 05:00 0,9 C -0,4 C -0,7 C 96 % 993,2 hPa 1,0 l/m 0,00 h 1,00 h 0 W/m 16,2 km/h (3 Bft) 95,48 %
26.02.2020 06:00 0,7 C -0,1 C -0,6 C 97 % 993,7 hPa 0,8 l/m 0,00 h 1,00 h 0 W/m 14,9 km/h (3 Bft) 96,96 %
26.02.2020 07:00 0,6 C -0,3 C -0,7 C 98 % 994,4 hPa 0,8 l/m 0,00 h 1,00 h 6 W/m 10,1 km/h (2 Bft) 97,01 %
26.02.2020 08:00 0,7 C -0,1 C -0,4 C 98 % 995,6 hPa 0,8 l/m 0,00 h 1,00 h 21 W/m 6,1 km/h (2 Bft) 98,01 %
26.02.2020 09:00 1,1 C 0,6 C 0,3 C 98 % 996,9 hPa 1,0 l/m 0,00 h 1,00 h 27 W/m 7,1 km/h (2 Bft) 96,37 %
26.02.2020 10:00 1,6 C 1,1 C 0,7 C 99 % 998,1 hPa 1,0 l/m 0,00 h 0,93 h 52 W/m 4,7 km/h (1 Bft) 95,24 %
26.02.2020 11:00 2,5 C 2,2 C 1,8 C 99 % 999,1 hPa 0,4 l/m 0,00 h 0,77 h 105 W/m 8,8 km/h (2 Bft) 99,43 %
26.02.2020 12:00 3,6 C 4,2 C 3,2 C 99 % 1000,0 hPa 0,0 l/m 0,33 h 0,67 h 194 W/m 7,8 km/h (2 Bft) 97,49 %
26.02.2020 13:00 3,9 C 4,3 C 3,2 C 99 % 1000,6 hPa 0,0 l/m 0,20 h 0,37 h 192 W/m 15,0 km/h (3 Bft) 95,66 %
26.02.2020 14:00 4,3 C 4,8 C 3,4 C 98 % 1001,5 hPa 0,0 l/m 0,50 h 0,23 h 192 W/m 18,0 km/h (3 Bft) 99,50 %
26.02.2020 15:00 4,5 C 4,4 C 3,3 C 96 % 1002,2 hPa 0,0 l/m 0,03 h 0,00 h 83 W/m 18,7 km/h (3 Bft) 95,73 %
26.02.2020 16:00 4,1 C 3,6 C 3,0 C 95 % 1003,0 hPa 0,2 l/m 0,00 h 0,33 h 55 W/m 12,6 km/h (3 Bft) 97,87 %
26.02.2020 17:00 3,7 C 2,6 C 2,2 C 95 % 1003,9 hPa 0,6 l/m 0,13 h 0,70 h 22 W/m 5,5 km/h (1 Bft) 98,51 %
26.02.2020 18:00 3,6 C 2,6 C 2,1 C 96 % 1004,7 hPa 0,2 l/m 0,00 h 0,43 h 8 W/m 4,5 km/h (1 Bft) 96,31 %
26.02.2020 19:00 3,1 C 1,9 C 1,5 C 96 % 1005,6 hPa 0,0 l/m 0,00 h 0,47 h 0 W/m 8,3 km/h (2 Bft) 95,24 %
26.02.2020 20:00 2,7 C 1,5 C 1,1 C 96 % 1006,1 hPa 0,0 l/m 0,00 h 0,73 h 0 W/m 4,5 km/h (1 Bft) 98,50 %
26.02.2020 21:00 2,6 C 1,4 C 1,1 C 97 % 1006,5 hPa 0,0 l/m 0,00 h 0,00 h 0 W/m 2,8 km/h (1 Bft) 97,30 %
26.02.2020 22:00 2,2 C 1,2 C 0,8 C 97 % 1006,8 hPa 0,0 l/m 0,00 h 0,00 h 0 W/m 1,5 km/h (1 Bft) 96,65 %
26.02.2020 23:00 2,3 C 1,4 C 1,1 C 97 % 1007,0 hPa 0,6 l/m 0,00 h 0,73 h 0 W/m 4,5 km/h (1 Bft) 97,37 %
27.02.2020 00:00 2,4 C 1,6 C 1,1 C 97 % 1006,9 hPa 0,0 l/m 0,00 h 0,03 h 0 W/m 0,1 km/h (0 Bft) 97,90 %
27.02.2020 01:00 2,3 C 1,4 C 1,0 C 97 % 1006,8 hPa 0,0 l/m 0,00 h 0,00 h 0 W/m 1,3 km/h (1 Bft) 98,43 %
27.02.2020 02:00 2,1 C 1,4 C 0,9 C 97 % 1006,7 hPa 0,2 l/m 0,00 h 0,00 h 0 W/m 2,0 km/h (1 Bft) 95,66 %
27.02.2020 03:00 2,3 C 1,3 C 1,1 C 98 % 1006,5 hPa 0,0 l/m 0,00 h 0,00 h 0 W/m 2,5 km/h (1 Bft) 98,36 %
27.02.2020 04:00 2,1 C 1,1 C 0,6 C 97 % 1006,1 hPa 0,0 l/m 0,00 h 0,00 h 0 W/m 3,1 km/h (1 Bft) 98,50 %
27.02.2020 05:00 2,1 C 1,1 C 0,9 C 97 % 1005,5 hPa 0,0 l/m 0,00 h 0,00 h 0 W/m 6,6 km/h (2 Bft) 95,65 %
27.02.2020 06:00 1,9 C 1,1 C 0,6 C 97 % 1004,7 hPa 0,0 l/m 0,00 h 0,00 h 0 W/m 1,3 km/h (1 Bft) 99,15 %
27.02.2020 07:00 1,7 C 1,1 C 0,6 C 97 % 1003,9 hPa 0,0 l/m 0,00 h 0,00 h 10 W/m 1,8 km/h (1 Bft) 97,36 %
27.02.2020 08:00 2,0 C 1,5 C 1,1 C 97 % 1003,1 hPa 0,0 l/m 0,00 h 0,00 h 30 W/m 1,8 km/h (1 Bft) 97,51 %
27.02.2020 09:00 2,7 C 2,4 C 2,0 C 97 % 1002,1 hPa 0,0 l/m 0,00 h 0,07 h 65 W/m 11,6 km/h (2 Bft) 97,50 %
27.02.2020 10:00 3,6 C 3,9 C 3,4 C 94 % 1000,7 hPa 0,0 l/m 0,00 h 0,00 h 134 W/m 19,7 km/h (3 Bft) 97,33 %
27.02.2020 11:00 4,4 C 4,3 C 3,8 C 90 % 999,3 hPa 0,0 l/m 0,00 h 0,13 h 126 W/m 24,7 km/h (4 Bft) 98,50 %
27.02.2020 12:00 4,0 C 2,5 C 2,2 C 90 % 997,8 hPa 0,4 l/m 0,00 h 1,00 h 112 W/m 24,8 km/h (4 Bft) 95,70 %
27.02.2020 13:00 3,4 C 2,3 C 2,1 C 94 % 996,0 hPa 0,6 l/m 0,00 h 1,00 h 96 W/m 19,3 km/h (3 Bft) 97,88 %
27.02.2020 14:00 3,1 C 2,1 C 1,7 C 96 % 994,5 hPa 0,8 l/m 0,00 h 1,00 h 50 W/m 16,1 km/h (3 Bft) 98,63 %
27.02.2020 15:00 2,4 C 1,2 C 1,0 C 96 % 994,7 hPa 2,0 l/m 0,00 h 1,00 h 23 W/m 11,6 km/h (2 Bft) 94,95 %
27.02.2020 16:00 1,3 C -0,3 C -0,5 C 96 % 995,7 hPa 0,8 l/m 0,00 h 1,00 h 14 W/m 3,3 km/h (1 Bft) 96,36 %
27.02.2020 17:00 0,6 C -0,6 C -1,1 C 96 % 997,4 hPa 0,8 l/m 0,00 h 1,00 h 7 W/m 1,5 km/h (1 Bft) 98,91 %
27.02.2020 18:00 0,5 C -0,6 C -1,1 C 97 % 999,8 hPa 0,4 l/m 0,00 h 1,00 h 0 W/m 2,0 km/h (1 Bft) 94,49 %
27.02.2020 19:00 0,3 C -0,6 C -1,1 C 97 % 1002,1 hPa 0,2 l/m 0,00 h 0,90 h 0 W/m 2,2 km/h (1 Bft) 97,21 %
27.02.2020 20:00 0,4 C -0,4 C -1,0 C 98 % 1004,0 hPa 0,2 l/m 0,00 h 0,73 h 0 W/m 4,1 km/h (1 Bft) 97,08 %
27.02.2020 21:00 0,9 C 0,3 C -0,2 C 99 % 1006,2 hPa 0,6 l/m 0,00 h 0,77 h 0 W/m 6,4 km/h (2 Bft) 96,03 %
27.02.2020 22:00 1,5 C 0,9 C 0,4 C 99 % 1008,0 hPa 0,8 l/m 0,00 h 0,30 h 0 W/m 3,6 km/h (1 Bft) 99,22 %
27.02.2020 23:00 1,3 C 0,6 C 0,0 C 99 % 1009,7 hPa 0,0 l/m 0,00 h 0,00 h 0 W/m 2,0 km/h (1 Bft) 94,59 %
28.02.2020 00:00 1,1 C 0,2 C -0,1 C 99 % 1011,1 hPa 0,0 l/m 0,00 h 0,00 h 0 W/m 2,2 km/h (1 Bft) 96,11 %
28.02.2020 01:00 1,0 C 0,1 C -0,4 C 99 % 1012,4 hPa 0,0 l/m 0,00 h 0,00 h 0 W/m 0,9 km/h (0 Bft) 98,50 %
28.02.2020 02:00 0,9 C 0,2 C -0,3 C 99 % 1013,6 hPa 0,0 l/m 0,00 h 0,00 h 0 W/m 2,1 km/h (1 Bft) 95,50 %
28.02.2020 03:00 1,1 C 0,3 C -0,3 C 99 % 1014,3 hPa 0,2 l/m 0,00 h 0,00 h 0 W/m 0,9 km/h (0 Bft) 98,93 %
28.02.2020 04:00 1,2 C 0,6 C 0,0 C 99 % 1015,2 hPa 0,0 l/m 0,00 h 0,00 h 0 W/m 6,3 km/h (2 Bft) 96,51 %
28.02.2020 05:00 1,1 C 0,1 C -0,5 C 98 % 1016,0 hPa 0,0 l/m 0,00 h 0,00 h 0 W/m 1,2 km/h (1 Bft) 96,95 %
28.02.2020 06:00 0,7 C -0,2 C -0,6 C 98 % 1016,4 hPa 0,0 l/m 0,00 h 0,00 h 0 W/m 2,1 km/h (1 Bft) 97,23 %
28.02.2020 07:00 0,6 C -0,3 C -0,7 C 98 % 1017,0 hPa 0,0 l/m 0,00 h 0,00 h 11 W/m 3,0 km/h (1 Bft) 96,57 %
28.02.2020 08:00 0,9 C 0,8 C -0,2 C 98 % 1017,6 hPa 0,0 l/m 0,00 h 0,00 h 42 W/m 4,2 km/h (1 Bft) 98,32 %
28.02.2020 09:00 2,1 C 3,9 C 1,8 C 97 % 1017,9 hPa 1,0 l/m 0,63 h 0,00 h 167 W/m 3,0 km/h (1 Bft) 95,44 %
28.02.2020 10:00 3,6 C 5,9 C 3,4 C 94 % 1017,9 hPa 1,0 l/m 1,00 h 0,00 h 280 W/m 16,5 km/h (3 Bft) 98,00 %
28.02.2020 11:00 5,2 C 7,3 C 5,0 C 87 % 1017,9 hPa 0,0 l/m 1,00 h 0,00 h 345 W/m 21,1 km/h (4 Bft) 98,79 %
28.02.2020 12:00 6,3 C 7,7 C 6,4 C 80 % 1017,4 hPa 0,0 l/m 1,00 h 0,00 h 339 W/m 26,1 km/h (4 Bft) 97,01 %
28.02.2020 13:00 6,8 C 7,7 C 6,9 C 75 % 1016,2 hPa 0,0 l/m 1,00 h 0,00 h 297 W/m 24,1 km/h (4 Bft) 99,08 %
28.02.2020 14:00 7,4 C 8,1 C 7,2 C 72 % 1015,3 hPa 0,0 l/m 0,77 h 0,00 h 276 W/m 26,0 km/h (4 Bft) 93,63 %
28.02.2020 15:00 7,2 C 6,8 C 6,4 C 72 % 1014,4 hPa 0,2 l/m 0,00 h 0,00 h 112 W/m 26,7 km/h (4 Bft) 98,79 %
28.02.2020 16:00 6,6 C 6,0 C 5,5 C 73 % 1013,3 hPa 0,0 l/m 0,00 h 0,00 h 56 W/m 26,0 km/h (4 Bft) 96,52 %
28.02.2020 17:00 6,2 C 5,3 C 4,7 C 76 % 1012,0 hPa 0,0 l/m 0,00 h 0,13 h 14 W/m 21,3 km/h (4 Bft) 95,03 %
28.02.2020 18:00 5,1 C 2,8 C 2,4 C 83 % 1010,5 hPa 0,4 l/m 0,00 h 1,00 h 0 W/m 39,3 km/h (6 Bft) 97,77 %
28.02.2020 19:00 4,4 C 2,7 C 2,2 C 89 % 1008,8 hPa 1,6 l/m 0,00 h 1,00 h 0 W/m 42,5 km/h (6 Bft) 96,70 %
28.02.2020 20:00 3,8 C 2,5 C 2,1 C 94 % 1006,9 hPa 2,2 l/m 0,00 h 1,00 h 0 W/m 39,8 km/h (6 Bft) 98,17 %
28.02.2020 21:00 3,9 C 2,8 C 2,2 C 96 % 1006,0 hPa 1,0 l/m 0,00 h 0,33 h 0 W/m 34,0 km/h (5 Bft) 98,65 %
28.02.2020 22:00 4,0 C 3,2 C 2,7 C 97 % 1005,1 hPa 0,0 l/m 0,00 h 0,03 h 0 W/m 26,5 km/h (4 Bft) 94,77 %
28.02.2020 23:00 4,7 C 4,2 C 3,4 C 97 % 1003,9 hPa 0,0 l/m 0,00 h 0,00 h 0 W/m 22,1 km/h (4 Bft) 99,71 %
29.02.2020 00:00 6,2 C 5,8 C 4,8 C 97 % 1002,9 hPa 0,0 l/m 0,00 h 0,00 h 0 W/m 22,4 km/h (4 Bft) 98,12 %
29.02.2020 01:00 7,5 C 6,8 C 5,7 C 97 % 1002,1 hPa 0,0 l/m 0,00 h 0,00 h 0 W/m 28,8 km/h (4 Bft) 93,56 %
29.02.2020 02:00 8,2 C 7,7 C 6,5 C 97 % 1001,3 hPa 0,0 l/m 0,00 h 0,00 h 0 W/m 28,1 km/h (4 Bft) 97,73 %
29.02.2020 03:00 8,7 C 8,3 C 6,9 C 95 % 1000,0 hPa 0,0 l/m 0,00 h 0,00 h 0 W/m 28,0 km/h (4 Bft) 97,22 %
29.02.2020 04:00 9,5 C 9,2 C 8,2 C 92 % 999,1 hPa 0,0 l/m 0,00 h 0,00 h 0 W/m 31,5 km/h (5 Bft) 96,09 %
29.02.2020 05:00 10,1 C 9,4 C 8,7 C 88 % 998,2 hPa 0,0 l/m 0,00 h 0,00 h 0 W/m 32,1 km/h (5 Bft) 98,22 %
29.02.2020 06:00 9,6 C 8,4 C 7,7 C 87 % 997,3 hPa 0,0 l/m 0,00 h 0,00 h 0 W/m 20,6 km/h (4 Bft) 96,26 %
29.02.2020 07:00 8,5 C 7,9 C 7,0 C 88 % 996,4 hPa 0,0 l/m 0,17 h 0,00 h 22 W/m 21,1 km/h (4 Bft) 96,94 %
29.02.2020 08:00 8,5 C 8,3 C 7,4 C 86 % 995,3 hPa 0,0 l/m 0,40 h 0,00 h 77 W/m 24,3 km/h (4 Bft) 97,37 %
29.02.2020 09:00 9,2 C 9,5 C 8,6 C 85 % 993,7 hPa 0,0 l/m 0,47 h 0,00 h 149 W/m 27,9 km/h (4 Bft) 98,65 %
29.02.2020 10:00 10,6 C 12,2 C 10,1 C 82 % 991,9 hPa 0,0 l/m 0,93 h 0,00 h 292 W/m 35,3 km/h (5 Bft) 95,26 %
29.02.2020 11:00 12,2 C 13,1 C 11,5 C 78 % 990,9 hPa 0,0 l/m 0,57 h 0,00 h 287 W/m 35,4 km/h (5 Bft) 98,86 %
29.02.2020 12:00 12,7 C 12,8 C 12,2 C 73 % 990,1 hPa 0,0 l/m 0,00 h 0,00 h 199 W/m 34,0 km/h (5 Bft) 99,45 %
29.02.2020 13:00 13,1 C 12,8 C 12,2 C 70 % 988,7 hPa 0,0 l/m 0,00 h 0,00 h 111 W/m 35,5 km/h (5 Bft) 93,37 %
29.02.2020 14:00 13,7 C 13,3 C 12,7 C 69 % 987,2 hPa 0,0 l/m 0,07 h 0,00 h 76 W/m 37,6 km/h (5 Bft) 98,29 %
29.02.2020 15:00 10,7 C 8,0 C 7,8 C 83 % 988,7 hPa 2,6 l/m 0,00 h 0,90 h 45 W/m 34,2 km/h (5 Bft) 98,50 %
29.02.2020 16:00 8,0 C 6,2 C 6,1 C 91 % 990,8 hPa 0,4 l/m 0,00 h 1,00 h 48 W/m 25,5 km/h (4 Bft) 96,22 %
29.02.2020 17:00 7,3 C 5,9 C 5,5 C 91 % 992,0 hPa 0,0 l/m 0,20 h 0,13 h 39 W/m 18,8 km/h (3 Bft) 97,44 %
29.02.2020 18:00 7,1 C 5,7 C 4,9 C 90 % 993,1 hPa 0,0 l/m 0,00 h 0,00 h 7 W/m 23,7 km/h (4 Bft) 97,72 %
29.02.2020 19:00 6,6 C 5,7 C 4,1 C 86 % 994,1 hPa 0,0 l/m 0,00 h 0,00 h 0 W/m 23,5 km/h (4 Bft) 97,08 %
29.02.2020 20:00 6,0 C 5,3 C 3,8 C 84 % 994,4 hPa 0,0 l/m 0,00 h 0,00 h 0 W/m 24,4 km/h (4 Bft) 97,56 %
29.02.2020 21:00 5,7 C 5,2 C 4,2 C 83 % 994,7 hPa 0,0 l/m 0,00 h 0,00 h 0 W/m 29,6 km/h (5 Bft) 93,46 %
29.02.2020 22:00 5,9 C 5,1 C 4,4 C 80 % 994,9 hPa 0,0 l/m 0,00 h 0,00 h 0 W/m 27,5 km/h (4 Bft) 99,43 %
29.02.2020 23:00 6,0 C 5,4 C 4,4 C 81 % 995,1 hPa 0,0 l/m 0,00 h 0,07 h 0 W/m 30,7 km/h (5 Bft) 98,86 %
01.03.2020 00:00 5,6 C 4,8 C 4,2 C 86 % 995,6 hPa 0,0 l/m 0,00 h 0,00 h 0 W/m 31,0 km/h (5 Bft) 91,26 %
01.03.2020 01:00 5,3 C 4,5 C 3,9 C 86 % 995,6 hPa 0,0 l/m 0,00 h 0,00 h 0 W/m 26,2 km/h (4 Bft) 98,72 %
01.03.2020 02:00 5,3 C 4,5 C 3,9 C 83 % 995,5 hPa 0,0 l/m 0,00 h 0,00 h 0 W/m 25,7 km/h (4 Bft) 97,93 %
01.03.2020 03:00 5,4 C 4,8 C 4,0 C 83 % 995,1 hPa 0,0 l/m 0,00 h 0,00 h 0 W/m 27,2 km/h (4 Bft) 96,03 %
01.03.2020 04:00 5,6 C 5,0 C 4,3 C 82 % 994,7 hPa 0,0 l/m 0,00 h 0,00 h 0 W/m 28,4 km/h (4 Bft) 97,06 %
01.03.2020 05:00 5,9 C 5,4 C 4,7 C 81 % 994,8 hPa 0,0 l/m 0,00 h 0,00 h 0 W/m 26,4 km/h (4 Bft) 95,01 %
01.03.2020 06:00 6,3 C 5,6 C 4,9 C 81 % 994,6 hPa 0,0 l/m 0,00 h 0,23 h 0 W/m 25,5 km/h (4 Bft) 97,14 %
01.03.2020 07:00 6,7 C 6,1 C 5,4 C 80 % 994,5 hPa 0,0 l/m 0,00 h 0,10 h 16 W/m 29,2 km/h (5 Bft) 97,65 %
01.03.2020 08:00 6,5 C 6,0 C 5,2 C 82 % 994,6 hPa 0,0 l/m 0,00 h 0,00 h 46 W/m 22,7 km/h (4 Bft) 95,38 %
01.03.2020 09:00 6,9 C 7,8 C 6,6 C 82 % 994,8 hPa 0,0 l/m 0,53 h 0,00 h 188 W/m 31,1 km/h (5 Bft) 99,58 %
01.03.2020 10:00 7,9 C 8,4 C 7,2 C 78 % 995,2 hPa 0,0 l/m 0,47 h 0,00 h 223 W/m 33,7 km/h (5 Bft) 97,52 %
01.03.2020 11:00 8,7 C 10,2 C 8,3 C 73 % 995,2 hPa 0,0 l/m 0,40 h 0,00 h 267 W/m 35,7 km/h (5 Bft) 94,80 %
01.03.2020 12:00 9,6 C 11,6 C 9,4 C 69 % 995,1 hPa 0,0 l/m 0,73 h 0,00 h 404 W/m 31,5 km/h (5 Bft) 99,65 %
01.03.2020 13:00 9,9 C 11,2 C 9,5 C 67 % 994,7 hPa 0,0 l/m 0,63 h 0,00 h 308 W/m 33,6 km/h (5 Bft) 96,44 %
01.03.2020 14:00 10,2 C 10,7 C 9,5 C 65 % 994,4 hPa 0,0 l/m 0,43 h 0,00 h 236 W/m 30,6 km/h (5 Bft) 98,29 %
01.03.2020 15:00 10,0 C 9,9 C 9,3 C 65 % 993,9 hPa 0,0 l/m 0,23 h 0,00 h 175 W/m 30,0 km/h (5 Bft) 96,63 %
01.03.2020 16:00 9,8 C 9,4 C 8,9 C 67 % 993,0 hPa 0,0 l/m 0,00 h 0,00 h 92 W/m 18,2 km/h (3 Bft) 98,01 %
01.03.2020 17:00 9,7 C 8,9 C 8,4 C 71 % 992,7 hPa 0,0 l/m 0,00 h 0,00 h 35 W/m 15,1 km/h (3 Bft) 97,50 %
01.03.2020 18:00 9,2 C 7,9 C 7,2 C 75 % 992,3 hPa 0,0 l/m 0,00 h 0,00 h 6 W/m 7,7 km/h (2 Bft) 96,96 %
01.03.2020 19:00 8,3 C 6,8 C 6,4 C 83 % 992,3 hPa 0,0 l/m 0,00 h 0,33 h 0 W/m 16,8 km/h (3 Bft) 99,00 %
01.03.2020 20:00 6,9 C 5,0 C 4,5 C 91 % 992,3 hPa 1,8 l/m 0,00 h 1,00 h 0 W/m 16,3 km/h (3 Bft) 96,87 %
01.03.2020 21:00 6,0 C 4,6 C 4,4 C 95 % 992,3 hPa 0,6 l/m 0,00 h 0,80 h 0 W/m 9,0 km/h (2 Bft) 96,73 %
01.03.2020 22:00 5,7 C 4,4 C 3,9 C 96 % 992,8 hPa 0,0 l/m 0,00 h 0,13 h 0 W/m 0,6 km/h (0 Bft) 97,29 %
01.03.2020 23:00 5,4 C 4,4 C 3,9 C 96 % 993,3 hPa 0,0 l/m 0,00 h 0,03 h 0 W/m 2,0 km/h (1 Bft) 97,69 %
Min-Datum _ 27.02.20 26.02.20 26.02.20 25.02.20 29.02.20 - - - - 24.02.20 01.03.20
_ Min-Zeit 19:00 05:04 05:06 13:42 15:06 - - - - 00:36 00:02
Minimum _ 0,3 C -0,6 C -1,1 C 62 % 986,4 hPa - - - - 0,0 km/h (0 Bft) 7,69 %
Max-Datum _ 29.02.20 25.02.20 25.02.20 24.02.20 24.02.20 25.02.20 29.02.20 24.02.20 01.03.20 29.02.20 24.02.20
_ Max-Zeit 15:06 13:26 13:02 15:10 02:38 17:04 10:39 18:08 12:26 10:44 00:00
Maximum _ 14,0 C 16,1 C 15,0 C 100 % 1024,6 hPa 2,6 l/m 0,08 h 0,07 h 699 W/m 70,8 km/h
SO (8 Bft)
100,00 %
Durchschnitt _ 5,6 C 5,1 C 4,3 C 90 % 1002,7 hPa #40,4 l/m #17:18 h #44:55 h 124 W/m 17,6 km/h (3 Bft) 97,14 %
© 2020 W. Hausmann